Terminal Aerodrome Forecast
Issued by NWS Wilmington, OH

Current Version | Previous Version | Graphics & Text | Print | Product List | Glossary On
Versions: 1 2 3 4 5 6 7 8 9 10 11 12 13 14 15 16 17 18 19 20 21 22 23 24 25 26 27 28
000
FTUS41 KILN 242300
TAFCVG
TAF
KCVG 242338Z 2500/2606 14005KT P6SM OVC080
     FM250600 11010KT P6SM VCSH OVC060
     FM251100 10012KT P6SM -SHRA OVC050
     FM251500 12012KT 5SM -SHRA BR OVC015
     FM251800 09012KT P6SM VCSH OVC015
     FM252000 06013KT 5SM -SHRA VCTS BKN015CB OVC025
     FM252300 04013KT 3SM BR VCSH OVC008
     FM260300 04016KT 3SM -SHRA BR OVC012=

USA.gov is the U.S. government's official web portal to all federal, state and local government web resources and services.